createdAt,value
2022-10-29T00:02:22.669Z,11.47
2022-10-29T00:04:49.969Z,11.64
2022-10-29T00:07:17.271Z,11.69
2022-10-29T00:09:44.604Z,11.46
2022-10-29T00:12:12.018Z,10.65
2022-10-29T00:14:39.357Z,10.44
2022-10-29T00:17:06.647Z,10.31
2022-10-29T00:19:33.973Z,10.27
2022-10-29T00:22:01.360Z,10.37
2022-10-29T00:24:28.652Z,10.33
2022-10-29T00:26:55.999Z,10.61
2022-10-29T00:29:23.328Z,10.35
2022-10-29T00:31:51.296Z,10.05
2022-10-29T00:34:18.689Z,9.97
2022-10-29T00:36:45.993Z,9.94
2022-10-29T00:39:15.591Z,10.00
2022-10-29T00:41:43.622Z,10.26
2022-10-29T00:44:20.504Z,10.32
2022-10-29T00:47:02.649Z,10.28
2022-10-29T00:49:32.017Z,10.44
2022-10-29T00:52:01.653Z,10.67
2022-10-29T00:54:30.337Z,11.00
2022-10-29T00:57:22.351Z,10.77
2022-10-29T00:59:50.338Z,10.39
2022-10-29T01:02:17.955Z,10.01
2022-10-29T01:04:46.533Z,9.84
2022-10-29T01:07:13.887Z,9.71
2022-10-29T01:09:41.267Z,9.77
2022-10-29T01:12:30.286Z,9.78
2022-10-29T01:15:22.542Z,9.80
2022-10-29T01:18:08.433Z,9.73
2022-10-29T01:21:13.783Z,9.92
2022-10-29T01:24:07.900Z,10.27
2022-10-29T01:27:05.995Z,10.17
2022-10-29T01:30:07.299Z,10.55
2022-10-29T01:32:51.841Z,10.36
2022-10-29T01:35:56.894Z,10.08
2022-10-29T01:38:27.189Z,10.09
2022-10-29T01:41:12.564Z,9.84
2022-10-29T01:43:57.291Z,9.98
2022-10-29T01:46:29.644Z,10.36
2022-10-29T01:49:04.228Z,10.63
2022-10-29T01:51:33.370Z,10.50
2022-10-29T01:54:02.031Z,10.62
2022-10-29T01:56:29.380Z,10.35
2022-10-29T01:58:59.176Z,10.10
2022-10-29T02:02:05.245Z,9.86
2022-10-29T02:04:51.403Z,9.78
2022-10-29T02:07:44.770Z,10.00
2022-10-29T02:10:19.142Z,10.16
2022-10-29T02:12:56.547Z,10.14
2022-10-29T02:15:33.094Z,9.68
2022-10-29T02:18:01.982Z,9.52
2022-10-29T02:20:29.790Z,9.33
2022-10-29T02:22:57.233Z,9.36
2022-10-29T02:25:25.080Z,9.09
2022-10-29T02:27:52.814Z,8.95
2022-10-29T02:30:20.231Z,8.94
2022-10-29T02:32:47.733Z,9.11
2022-10-29T02:35:15.103Z,9.17
2022-10-29T02:37:42.402Z,9.18
2022-10-29T02:40:10.259Z,9.52
2022-10-29T02:42:37.613Z,9.48
2022-10-29T02:45:05.342Z,9.68
2022-10-29T02:47:32.740Z,10.01
2022-10-29T02:50:00.047Z,9.92
2022-10-29T02:52:27.367Z,9.99
2022-10-29T02:54:54.756Z,9.94
2022-10-29T02:57:22.037Z,9.82
2022-10-29T02:59:49.326Z,9.73
2022-10-29T03:02:16.821Z,9.76
2022-10-29T03:04:44.772Z,9.83
2022-10-29T03:07:12.086Z,9.72
2022-10-29T03:09:39.420Z,10.03
2022-10-29T03:12:07.124Z,9.98
2022-10-29T03:14:34.428Z,9.90
2022-10-29T03:17:01.778Z,9.67
2022-10-29T03:19:29.082Z,9.32
2022-10-29T03:21:56.444Z,9.16
2022-10-29T03:24:23.726Z,9.23
2022-10-29T03:26:51.034Z,9.30
2022-10-29T03:29:18.347Z,9.56
2022-10-29T03:31:45.690Z,9.71
2022-10-29T03:34:12.980Z,9.63
2022-10-29T03:36:40.313Z,9.53
2022-10-29T03:39:07.762Z,9.22
2022-10-29T03:41:35.084Z,9.37
2022-10-29T03:44:02.368Z,9.64
2022-10-29T03:46:29.691Z,9.47
2022-10-29T03:48:56.967Z,9.25
2022-10-29T03:51:24.356Z,9.15
2022-10-29T03:53:51.711Z,9.17
2022-10-29T03:56:19.055Z,9.17
2022-10-29T03:58:46.409Z,9.24
2022-10-29T04:01:13.912Z,9.29
2022-10-29T04:03:42.468Z,9.43
2022-10-29T04:06:14.865Z,9.85
2022-10-29T04:08:42.695Z,10.07
2022-10-29T04:11:12.047Z,10.35
2022-10-29T04:13:39.767Z,10.66
2022-10-29T04:16:07.455Z,10.82
2022-10-29T04:18:34.843Z,10.76
2022-10-29T04:25:26.863Z,10.54
2022-10-29T04:29:25.542Z,10.25
2022-10-29T04:31:52.878Z,9.95
2022-10-29T04:34:20.262Z,10.12
2022-10-29T04:36:47.546Z,10.20
2022-10-29T04:39:18.269Z,10.31
2022-10-29T04:41:51.539Z,10.37
2022-10-29T04:44:20.095Z,10.45
2022-10-29T04:46:47.609Z,10.30
2022-10-29T04:49:14.910Z,10.34
2022-10-29T04:51:42.240Z,10.32
2022-10-29T04:54:09.637Z,10.43
2022-10-29T04:56:36.962Z,10.23
2022-10-29T04:59:04.292Z,10.00
2022-10-29T05:01:31.827Z,9.96
2022-10-29T05:04:00.210Z,10.12
2022-10-29T05:06:27.787Z,10.22
2022-10-29T05:08:55.075Z,10.63
2022-10-29T05:11:22.407Z,10.45
2022-10-29T05:13:49.729Z,10.48
2022-10-29T05:16:17.059Z,10.61
2022-10-29T05:18:44.411Z,10.81
2022-10-29T05:21:11.714Z,10.91
2022-10-29T05:23:39.102Z,10.56
2022-10-29T05:26:06.381Z,10.00
2022-10-29T05:28:33.748Z,9.78
2022-10-29T05:31:02.479Z,9.57
2022-10-29T05:33:29.810Z,9.40
2022-10-29T05:35:58.703Z,9.31
2022-10-29T05:38:25.979Z,9.25
2022-10-29T05:40:53.301Z,9.31
2022-10-29T05:43:20.586Z,9.28
2022-10-29T05:45:47.901Z,9.40
2022-10-29T05:48:15.247Z,9.53
2022-10-29T05:50:42.811Z,9.40
2022-10-29T05:53:14.520Z,9.35
2022-10-29T05:55:42.211Z,9.28
2022-10-29T05:58:13.910Z,9.29
2022-10-29T06:00:43.713Z,9.19
2022-10-29T06:03:16.678Z,9.19
2022-10-29T06:05:44.217Z,9.23
2022-10-29T06:08:11.487Z,9.23
2022-10-29T06:10:38.859Z,9.22
2022-10-29T06:13:12.986Z,9.25
2022-10-29T06:15:40.388Z,9.29
2022-10-29T06:18:08.283Z,9.58
2022-10-29T06:20:36.107Z,9.73
2022-10-29T06:23:03.600Z,9.74
2022-10-29T06:25:31.113Z,9.76
2022-10-29T06:28:07.065Z,9.79
2022-10-29T06:30:35.503Z,9.88
2022-10-29T06:33:03.542Z,9.78
2022-10-29T06:35:31.320Z,9.77
2022-10-29T06:37:59.472Z,9.87
2022-10-29T06:40:27.323Z,9.86
2022-10-29T06:43:02.124Z,9.84
2022-10-29T06:45:30.221Z,10.04
2022-10-29T06:47:58.039Z,10.21
2022-10-29T06:50:25.976Z,10.64
2022-10-29T06:53:03.392Z,10.75
2022-10-29T06:55:30.889Z,10.71
2022-10-29T06:58:02.947Z,10.89
2022-10-29T07:00:31.548Z,11.04
2022-10-29T07:03:00.159Z,10.72
2022-10-29T07:05:28.176Z,10.63
2022-10-29T07:07:57.731Z,10.51
2022-10-29T07:10:27.496Z,10.68
2022-10-29T07:12:55.037Z,10.74
2022-10-29T07:15:25.757Z,10.75
2022-10-29T07:18:03.547Z,11.24
2022-10-29T07:20:32.905Z,11.51
2022-10-29T07:23:01.509Z,11.53
2022-10-29T07:25:29.628Z,11.76
2022-10-29T07:28:03.641Z,12.17
2022-10-29T07:30:31.188Z,12.19
2022-10-29T07:32:58.485Z,12.39
2022-10-29T07:35:25.877Z,12.78
2022-10-29T07:37:53.336Z,12.97
2022-10-29T07:40:20.751Z,13.09
2022-10-29T07:42:52.821Z,13.77
2022-10-29T07:45:20.389Z,14.36
2022-10-29T07:47:47.697Z,14.80
2022-10-29T07:50:15.520Z,15.20
2022-10-29T07:52:43.941Z,15.73
2022-10-29T07:55:11.207Z,15.58
2022-10-29T07:57:38.507Z,16.54
2022-10-29T08:00:06.269Z,16.97
2022-10-29T08:02:40.056Z,18.09
2022-10-29T08:05:08.051Z,18.06
2022-10-29T08:07:35.426Z,18.79
2022-10-29T08:10:02.712Z,18.23
2022-10-29T08:12:30.044Z,17.50
2022-10-29T08:14:57.402Z,17.70
2022-10-29T08:17:24.704Z,17.52
2022-10-29T08:19:52.033Z,17.50
2022-10-29T08:22:19.340Z,17.63
2022-10-29T08:24:46.636Z,17.61
2022-10-29T08:27:14.018Z,17.84
2022-10-29T08:29:41.323Z,17.65
2022-10-29T08:32:08.729Z,17.47
2022-10-29T08:34:36.011Z,17.03
2022-10-29T08:37:03.399Z,17.21
2022-10-29T08:39:30.693Z,17.15
2022-10-29T08:42:16.114Z,17.21
2022-10-29T08:45:20.587Z,17.60
2022-10-29T08:47:47.815Z,17.92
2022-10-29T08:50:34.606Z,17.23
2022-10-29T08:53:22.325Z,17.13
2022-10-29T08:55:50.227Z,18.16
2022-10-29T08:58:37.576Z,18.65
2022-10-29T09:01:11.265Z,18.76
2022-10-29T09:03:38.716Z,19.22
2022-10-29T09:06:36.478Z,19.15
2022-10-29T09:09:26.475Z,19.93
2022-10-29T09:12:26.840Z,20.12
2022-10-29T09:15:29.229Z,20.44
2022-10-29T09:18:15.426Z,20.50
2022-10-29T09:20:54.746Z,20.27
2022-10-29T09:23:47.653Z,20.71
2022-10-29T09:26:32.104Z,20.24
2022-10-29T09:29:36.450Z,20.33
2022-10-29T09:32:19.034Z,20.38
2022-10-29T09:34:58.158Z,19.95
2022-10-29T09:37:53.540Z,20.55
2022-10-29T09:40:42.060Z,21.29
2022-10-29T09:43:33.071Z,22.71
2022-10-29T09:46:25.174Z,24.00
2022-10-29T09:48:52.432Z,24.94
2022-10-29T09:51:22.573Z,25.51
2022-10-29T09:53:51.243Z,26.24
2022-10-29T09:56:18.692Z,26.46
2022-10-29T09:58:49.033Z,26.35
2022-10-29T10:01:16.578Z,26.27
2022-10-29T10:03:47.446Z,26.94
2022-10-29T10:06:16.182Z,28.12
2022-10-29T10:09:04.941Z,27.70
2022-10-29T10:11:42.993Z,27.39
2022-10-29T10:14:24.269Z,27.20
2022-10-29T10:17:01.515Z,27.84
2022-10-29T10:19:30.928Z,28.90
2022-10-29T10:22:03.334Z,29.30
2022-10-29T10:24:32.809Z,29.77
2022-10-29T10:27:00.948Z,30.59
2022-10-29T10:29:28.767Z,29.85
2022-10-29T10:31:56.062Z,30.32
2022-10-29T10:34:33.814Z,31.19
2022-10-29T10:37:10.100Z,31.62
2022-10-29T10:40:01.110Z,30.90
2022-10-29T10:42:30.990Z,31.08
2022-10-29T10:45:15.721Z,30.98
2022-10-29T10:47:50.784Z,30.96
2022-10-29T10:50:25.533Z,31.12
2022-10-29T10:52:57.394Z,30.78
2022-10-29T10:55:34.243Z,30.98
2022-10-29T10:58:24.861Z,31.37
2022-10-29T11:00:55.701Z,31.72
2022-10-29T11:03:34.553Z,30.45
2022-10-29T11:06:07.809Z,28.51
2022-10-29T11:08:55.190Z,29.11
2022-10-29T11:11:27.770Z,28.23
2022-10-29T11:14:00.375Z,28.00
2022-10-29T11:16:52.213Z,28.44
2022-10-29T11:19:31.304Z,29.50
2022-10-29T11:22:07.509Z,29.99
2022-10-29T11:24:56.559Z,30.15
2022-10-29T11:27:43.181Z,30.11
2022-10-29T11:30:18.753Z,30.84
2022-10-29T11:33:12.755Z,29.86
2022-10-29T11:36:11.624Z,29.34
2022-10-29T11:38:45.186Z,29.56
2022-10-29T11:41:31.401Z,30.40
2022-10-29T11:43:58.743Z,29.78
2022-10-29T11:46:37.639Z,28.40
2022-10-29T11:49:33.939Z,29.17
2022-10-29T11:52:10.311Z,28.61
2022-10-29T11:55:03.978Z,28.25
2022-10-29T11:57:38.795Z,29.26
2022-10-29T12:00:20.698Z,29.54
2022-10-29T12:02:54.165Z,29.70
2022-10-29T12:05:48.827Z,29.59
2022-10-29T12:08:51.956Z,29.59
2022-10-29T12:11:43.185Z,30.52
2022-10-29T12:14:30.822Z,29.52
2022-10-29T12:17:19.188Z,30.26
2022-10-29T12:19:55.475Z,29.04
2022-10-29T12:22:41.998Z,29.42
2022-10-29T12:25:40.111Z,29.21
2022-10-29T12:28:29.673Z,29.15
2022-10-29T12:31:00.034Z,29.11
2022-10-29T12:33:49.010Z,29.02
2022-10-29T12:36:37.801Z,27.88
2022-10-29T12:39:11.219Z,28.33
2022-10-29T12:41:46.130Z,28.30
2022-10-29T12:44:27.355Z,27.99
2022-10-29T12:47:08.546Z,27.88
2022-10-29T12:49:47.855Z,28.20
2022-10-29T12:52:22.284Z,28.74
2022-10-29T12:54:51.313Z,29.68
2022-10-29T12:57:30.620Z,29.54
2022-10-29T12:59:58.638Z,30.08
2022-10-29T13:02:38.278Z,29.67
2022-10-29T13:05:11.586Z,28.64
2022-10-29T13:07:59.551Z,28.48
2022-10-29T13:10:33.485Z,27.44
2022-10-29T13:13:15.871Z,27.20
2022-10-29T13:16:01.469Z,27.24
2022-10-29T13:18:43.858Z,26.54
2022-10-29T13:21:11.145Z,26.99
2022-10-29T13:23:38.512Z,26.66
2022-10-29T13:26:09.576Z,26.43
2022-10-29T13:28:36.865Z,26.19
2022-10-29T13:31:07.087Z,26.68
2022-10-29T13:33:34.312Z,26.58
2022-10-29T13:36:05.742Z,26.84
2022-10-29T13:39:06.288Z,27.01
2022-10-29T13:41:50.154Z,27.03
2022-10-29T13:44:23.715Z,26.62
2022-10-29T13:47:02.708Z,26.01
2022-10-29T13:49:34.434Z,25.78
2022-10-29T13:52:10.502Z,25.58
2022-10-29T13:54:45.218Z,25.45
2022-10-29T13:57:45.720Z,25.38
2022-10-29T14:00:13.015Z,25.27
2022-10-29T14:02:43.393Z,25.00
2022-10-29T14:05:29.647Z,24.77
2022-10-29T14:08:08.923Z,24.62
2022-10-29T14:10:41.553Z,24.53
2022-10-29T14:13:15.568Z,24.54
2022-10-29T14:16:01.207Z,24.63
2022-10-29T14:18:29.004Z,24.63
2022-10-29T14:21:01.656Z,24.82
2022-10-29T14:23:30.721Z,24.87
2022-10-29T14:26:03.886Z,24.95
2022-10-29T14:28:33.051Z,25.10
2022-10-29T14:31:07.052Z,24.87
2022-10-29T14:33:39.602Z,24.92
2022-10-29T14:36:41.461Z,24.71
2022-10-29T14:39:32.815Z,24.86
2022-10-29T14:44:52.359Z,24.95
2022-10-29T14:47:30.449Z,24.87
2022-10-29T14:50:02.845Z,24.78
2022-10-29T14:52:41.126Z,24.54
2022-10-29T14:55:20.616Z,24.47
2022-10-29T14:57:56.792Z,24.29
2022-10-29T15:00:26.771Z,24.12
2022-10-29T15:02:56.398Z,23.92
2022-10-29T15:05:36.583Z,23.75
2022-10-29T15:08:15.149Z,23.50
2022-10-29T15:10:55.366Z,23.16
2022-10-29T15:13:29.217Z,22.98
2022-10-29T15:16:17.092Z,22.70
2022-10-29T15:18:50.996Z,22.24
2022-10-29T15:21:23.077Z,22.13
2022-10-29T15:23:53.020Z,22.11
2022-10-29T15:26:21.359Z,21.76
2022-10-29T15:28:51.410Z,21.75
2022-10-29T15:31:41.488Z,21.62
2022-10-29T15:34:10.474Z,21.57
2022-10-29T15:36:48.032Z,21.04
2022-10-29T15:39:26.607Z,20.82
2022-10-29T15:41:56.860Z,20.88
2022-10-29T15:44:33.519Z,20.60
2022-10-29T15:47:02.440Z,20.57
2022-10-29T15:49:32.628Z,20.50
2022-10-29T15:52:00.816Z,20.38
2022-10-29T15:54:28.638Z,20.04
2022-10-29T15:56:56.005Z,19.90
2022-10-29T15:59:25.002Z,19.95
2022-10-29T16:01:52.494Z,19.88
2022-10-29T16:04:19.918Z,19.55
2022-10-29T16:06:47.347Z,19.51
2022-10-29T16:09:19.840Z,19.35
2022-10-29T16:11:48.351Z,19.10
2022-10-29T16:14:15.671Z,18.70
2022-10-29T16:16:42.976Z,18.58
2022-10-29T16:19:10.320Z,18.34
2022-10-29T16:21:37.746Z,18.18
2022-10-29T16:24:05.824Z,18.16
2022-10-29T16:26:33.200Z,18.03
2022-10-29T16:29:00.565Z,17.92
2022-10-29T16:31:29.260Z,17.94
2022-10-29T16:34:01.482Z,17.77
2022-10-29T16:36:28.826Z,17.83
2022-10-29T16:38:56.168Z,17.70
2022-10-29T16:41:23.491Z,17.62
2022-10-29T16:43:50.946Z,17.50
2022-10-29T16:46:18.348Z,17.48
2022-10-29T16:48:46.486Z,17.43
2022-10-29T16:51:13.880Z,17.33
2022-10-29T16:53:41.303Z,17.20
2022-10-29T16:56:08.817Z,17.08
2022-10-29T16:58:36.138Z,17.10
2022-10-29T17:01:04.725Z,16.98
2022-10-29T17:03:33.147Z,16.94
2022-10-29T17:06:10.044Z,16.74
2022-10-29T17:08:38.074Z,16.71
2022-10-29T17:11:08.760Z,16.58
2022-10-29T17:13:36.372Z,16.51
2022-10-29T17:16:08.359Z,16.45
2022-10-29T17:18:35.999Z,16.42
2022-10-29T17:21:03.879Z,16.59
2022-10-29T17:23:32.007Z,16.47
2022-10-29T17:26:00.057Z,16.37
2022-10-29T17:28:28.115Z,16.45
2022-10-29T17:30:55.422Z,16.13
2022-10-29T17:33:22.782Z,16.23
2022-10-29T17:35:50.118Z,16.33
2022-10-29T17:38:17.462Z,16.37
2022-10-29T17:40:46.140Z,16.34
2022-10-29T17:43:13.528Z,16.03
2022-10-29T17:45:43.635Z,15.98
2022-10-29T17:48:11.007Z,15.89
2022-10-29T17:50:38.296Z,16.00
2022-10-29T17:53:05.986Z,15.95
2022-10-29T17:55:33.316Z,16.03
2022-10-29T17:58:00.955Z,15.90
2022-10-29T18:00:28.405Z,15.87
2022-10-29T18:02:55.785Z,15.95
2022-10-29T18:05:23.172Z,15.89
2022-10-29T18:07:50.533Z,15.80
2022-10-29T18:10:18.262Z,15.61
2022-10-29T18:12:45.633Z,15.38
2022-10-29T18:15:13.022Z,15.23
2022-10-29T18:17:43.105Z,15.15
2022-10-29T18:20:10.710Z,15.21
2022-10-29T18:22:38.078Z,15.31
2022-10-29T18:25:05.667Z,15.45
2022-10-29T18:27:32.977Z,15.41
2022-10-29T18:30:00.340Z,15.28
2022-10-29T18:32:27.663Z,15.05
2022-10-29T18:34:54.984Z,14.94
2022-10-29T18:37:22.369Z,15.13
2022-10-29T18:39:49.656Z,15.18
2022-10-29T18:42:16.946Z,15.11
2022-10-29T18:44:44.273Z,15.15
2022-10-29T18:47:11.600Z,15.13
2022-10-29T18:49:38.868Z,15.12
2022-10-29T18:52:06.265Z,14.96
2022-10-29T18:54:33.639Z,14.87
2022-10-29T18:57:00.955Z,14.82
2022-10-29T18:59:28.296Z,14.78
2022-10-29T19:01:55.795Z,14.70
2022-10-29T19:04:23.245Z,14.62
2022-10-29T19:06:50.582Z,14.37
2022-10-29T19:09:17.880Z,14.30
2022-10-29T19:11:45.271Z,14.39
2022-10-29T19:14:14.433Z,14.28
2022-10-29T19:16:41.857Z,14.16
2022-10-29T19:19:12.331Z,14.03
2022-10-29T19:21:40.368Z,13.94
2022-10-29T19:24:08.478Z,13.96
2022-10-29T19:26:36.346Z,13.90
2022-10-29T19:29:05.239Z,13.97
2022-10-29T19:31:33.631Z,14.13
2022-10-29T19:34:02.952Z,14.12
2022-10-29T19:36:31.097Z,14.13
2022-10-29T19:39:00.400Z,14.23
2022-10-29T19:41:27.865Z,14.10
2022-10-29T19:43:58.083Z,14.05
2022-10-29T19:46:25.500Z,13.81
2022-10-29T19:48:54.265Z,13.83
2022-10-29T19:51:22.149Z,13.70
2022-10-29T19:53:51.371Z,13.54
2022-10-29T19:56:20.490Z,13.22
2022-10-29T19:58:47.945Z,13.21
2022-10-29T20:01:17.054Z,13.18
2022-10-29T20:03:45.003Z,13.00
2022-10-29T20:06:12.958Z,12.97
2022-10-29T20:08:42.802Z,13.01
2022-10-29T20:11:10.139Z,13.06
2022-10-29T20:13:39.505Z,13.12
2022-10-29T20:16:24.927Z,13.19
2022-10-29T20:18:52.258Z,13.19
2022-10-29T20:21:19.681Z,13.29
2022-10-29T20:23:47.113Z,13.30
2022-10-29T20:26:14.620Z,13.33
2022-10-29T20:28:42.073Z,13.43
2022-10-29T20:31:19.218Z,13.23
2022-10-29T20:33:50.850Z,13.17
2022-10-29T20:36:18.265Z,13.24
2022-10-29T20:38:49.550Z,13.33
2022-10-29T20:41:17.433Z,13.38
2022-10-29T20:43:45.525Z,13.32
2022-10-29T20:46:12.848Z,13.24
2022-10-29T20:48:40.179Z,13.35
2022-10-29T20:51:07.584Z,13.34
2022-10-29T20:53:34.902Z,13.20
2022-10-29T20:56:02.203Z,12.95
2022-10-29T20:58:29.618Z,12.68
2022-10-29T21:01:07.755Z,12.74
2022-10-29T21:03:35.550Z,12.70
2022-10-29T21:06:11.274Z,12.62
2022-10-29T21:08:43.465Z,12.56
2022-10-29T21:11:11.951Z,12.64
2022-10-29T21:13:39.282Z,12.80
2022-10-29T21:16:18.718Z,12.76
2022-10-29T21:18:47.829Z,12.77
2022-10-29T21:21:15.611Z,12.75
2022-10-29T21:23:43.104Z,12.62
2022-10-29T21:26:13.702Z,12.58
2022-10-29T21:28:41.302Z,12.56
2022-10-29T21:31:08.881Z,12.61
2022-10-29T21:33:36.268Z,12.56
2022-10-29T21:36:03.787Z,12.56
2022-10-29T21:38:32.702Z,12.52
2022-10-29T21:41:03.442Z,12.48
2022-10-29T21:43:31.080Z,12.46
2022-10-29T21:45:58.633Z,12.43
2022-10-29T21:48:27.167Z,12.32
2022-10-29T21:51:10.012Z,12.24
2022-10-29T21:53:37.400Z,12.03
2022-10-29T21:56:06.560Z,11.89
2022-10-29T21:58:33.981Z,11.88
2022-10-29T22:01:06.891Z,11.81
2022-10-29T22:03:35.575Z,11.93
2022-10-29T22:06:21.792Z,12.02
2022-10-29T22:08:53.925Z,12.13
2022-10-29T22:11:21.645Z,12.13
2022-10-29T22:13:48.960Z,12.21
2022-10-29T22:16:17.804Z,12.30
2022-10-29T22:18:46.207Z,12.50
2022-10-29T22:21:21.744Z,12.55
2022-10-29T22:23:54.602Z,12.36
2022-10-29T22:26:24.727Z,12.33
2022-10-29T22:28:52.203Z,12.16
2022-10-29T22:31:21.058Z,12.01
2022-10-29T22:33:48.875Z,11.72
2022-10-29T22:36:17.454Z,11.53
2022-10-29T22:38:45.286Z,11.47
2022-10-29T22:41:17.174Z,11.57
2022-10-29T22:43:45.064Z,11.48
2022-10-29T22:46:16.595Z,11.42
2022-10-29T22:48:44.259Z,11.35
2022-10-29T22:51:15.358Z,11.46
2022-10-29T22:53:43.009Z,11.57
2022-10-29T22:56:18.342Z,11.52
2022-10-29T22:58:46.180Z,11.40
2022-10-29T23:01:19.115Z,11.19
2022-10-29T23:03:46.901Z,11.11
2022-10-29T23:06:19.360Z,11.08
2022-10-29T23:08:47.492Z,11.09
2022-10-29T23:11:19.407Z,11.16
2022-10-29T23:13:47.924Z,11.14
2022-10-29T23:16:15.769Z,11.09
2022-10-29T23:18:43.123Z,11.13
2022-10-29T23:21:10.704Z,11.05
2022-10-29T23:23:38.030Z,11.02
2022-10-29T23:26:05.839Z,11.11
2022-10-29T23:28:34.926Z,11.06
2022-10-29T23:31:03.715Z,11.27
2022-10-29T23:33:32.226Z,11.39
2022-10-29T23:36:03.818Z,11.40
2022-10-29T23:38:31.997Z,11.33
2022-10-29T23:40:59.371Z,11.39
2022-10-29T23:43:27.549Z,11.49
2022-10-29T23:45:54.925Z,11.32
2022-10-29T23:48:22.558Z,11.31
2022-10-29T23:50:50.113Z,11.07
2022-10-29T23:53:17.463Z,11.05
2022-10-29T23:55:45.545Z,10.98
2022-10-29T23:58:13.554Z,10.97
